sensor_id;sensor_type;location;lat;lon;timestamp;P1;durP1;ratioP1;P2;durP2;ratioP2
22549;SDS011;11441;57.164;-2.120;2023-04-24T00:02:21;22.40;;;3.83;;
22549;SDS011;11441;57.164;-2.120;2023-04-24T00:04:48;21.53;;;4.33;;
22549;SDS011;11441;57.164;-2.120;2023-04-24T00:07:15;14.97;;;3.93;;
22549;SDS011;11441;57.164;-2.120;2023-04-24T00:09:43;15.97;;;3.67;;
22549;SDS011;11441;57.164;-2.120;2023-04-24T00:12:10;11.00;;;3.07;;
22549;SDS011;11441;57.164;-2.120;2023-04-24T00:14:37;11.73;;;3.00;;
22549;SDS011;11441;57.164;-2.120;2023-04-24T00:17:04;7.53;;;2.80;;
22549;SDS011;11441;57.164;-2.120;2023-04-24T00:19:31;12.23;;;3.10;;
22549;SDS011;11441;57.164;-2.120;2023-04-24T00:21:58;11.13;;;3.27;;
22549;SDS011;11441;57.164;-2.120;2023-04-24T00:24:25;10.17;;;3.13;;
22549;SDS011;11441;57.164;-2.120;2023-04-24T00:26:52;8.87;;;2.90;;
22549;SDS011;11441;57.164;-2.120;2023-04-24T00:29:18;8.87;;;2.83;;
22549;SDS011;11441;57.164;-2.120;2023-04-24T00:31:45;13.27;;;2.60;;
22549;SDS011;11441;57.164;-2.120;2023-04-24T00:34:13;9.27;;;2.10;;
22549;SDS011;11441;57.164;-2.120;2023-04-24T00:36:40;8.87;;;2.50;;
22549;SDS011;11441;57.164;-2.120;2023-04-24T00:39:06;15.10;;;3.33;;
22549;SDS011;11441;57.164;-2.120;2023-04-24T00:41:36;15.47;;;3.23;;
22549;SDS011;11441;57.164;-2.120;2023-04-24T00:44:03;16.50;;;3.27;;
22549;SDS011;11441;57.164;-2.120;2023-04-24T00:46:31;21.77;;;4.10;;
22549;SDS011;11441;57.164;-2.120;2023-04-24T00:49:16;12.67;;;3.57;;
22549;SDS011;11441;57.164;-2.120;2023-04-24T00:51:44;14.20;;;3.67;;
22549;SDS011;11441;57.164;-2.120;2023-04-24T00:54:12;14.90;;;3.37;;
22549;SDS011;11441;57.164;-2.120;2023-04-24T00:56:39;8.83;;;4.17;;
22549;SDS011;11441;57.164;-2.120;2023-04-24T00:59:09;15.27;;;4.13;;
22549;SDS011;11441;57.164;-2.120;2023-04-24T01:01:36;14.87;;;3.37;;
22549;SDS011;11441;57.164;-2.120;2023-04-24T01:04:03;21.03;;;5.00;;
22549;SDS011;11441;57.164;-2.120;2023-04-24T01:06:30;16.23;;;4.87;;
22549;SDS011;11441;57.164;-2.120;2023-04-24T01:08:58;17.80;;;4.50;;
22549;SDS011;11441;57.164;-2.120;2023-04-24T01:11:28;10.53;;;4.10;;
22549;SDS011;11441;57.164;-2.120;2023-04-24T01:13:56;11.50;;;3.83;;
22549;SDS011;11441;57.164;-2.120;2023-04-24T01:16:23;14.63;;;4.33;;
22549;SDS011;11441;57.164;-2.120;2023-04-24T01:18:50;15.17;;;4.40;;
22549;SDS011;11441;57.164;-2.120;2023-04-24T01:24:05;12.63;;;4.17;;
22549;SDS011;11441;57.164;-2.120;2023-04-24T01:26:32;17.93;;;4.33;;
22549;SDS011;11441;57.164;-2.120;2023-04-24T01:28:59;14.13;;;4.20;;
22549;SDS011;11441;57.164;-2.120;2023-04-24T01:31:26;10.33;;;3.43;;
22549;SDS011;11441;57.164;-2.120;2023-04-24T01:33:54;14.60;;;3.40;;
22549;SDS011;11441;57.164;-2.120;2023-04-24T01:36:22;18.77;;;4.67;;
22549;SDS011;11441;57.164;-2.120;2023-04-24T01:38:52;10.73;;;3.40;;
22549;SDS011;11441;57.164;-2.120;2023-04-24T01:41:19;12.23;;;3.53;;
22549;SDS011;11441;57.164;-2.120;2023-04-24T01:43:46;16.10;;;4.40;;
22549;SDS011;11441;57.164;-2.120;2023-04-24T01:46:15;11.63;;;2.67;;
22549;SDS011;11441;57.164;-2.120;2023-04-24T01:48:42;14.77;;;3.77;;
22549;SDS011;11441;57.164;-2.120;2023-04-24T01:51:10;15.90;;;3.93;;
22549;SDS011;11441;57.164;-2.120;2023-04-24T01:53:37;5.23;;;2.67;;
22549;SDS011;11441;57.164;-2.120;2023-04-24T01:56:04;17.87;;;3.37;;
22549;SDS011;11441;57.164;-2.120;2023-04-24T01:58:31;6.90;;;2.00;;
22549;SDS011;11441;57.164;-2.120;2023-04-24T02:00:59;12.60;;;2.60;;
22549;SDS011;11441;57.164;-2.120;2023-04-24T02:03:26;15.00;;;2.73;;
22549;SDS011;11441;57.164;-2.120;2023-04-24T02:05:56;8.90;;;2.63;;
22549;SDS011;11441;57.164;-2.120;2023-04-24T02:08:23;11.40;;;2.20;;
22549;SDS011;11441;57.164;-2.120;2023-04-24T02:10:50;7.77;;;2.00;;
22549;SDS011;11441;57.164;-2.120;2023-04-24T02:13:36;9.03;;;2.70;;
22549;SDS011;11441;57.164;-2.120;2023-04-24T02:16:03;16.13;;;2.77;;
22549;SDS011;11441;57.164;-2.120;2023-04-24T02:18:30;11.43;;;2.60;;
22549;SDS011;11441;57.164;-2.120;2023-04-24T02:20:57;8.37;;;2.43;;
22549;SDS011;11441;57.164;-2.120;2023-04-24T02:23:24;11.67;;;2.80;;
22549;SDS011;11441;57.164;-2.120;2023-04-24T02:25:51;14.43;;;3.13;;
22549;SDS011;11441;57.164;-2.120;2023-04-24T02:28:19;6.20;;;1.87;;
22549;SDS011;11441;57.164;-2.120;2023-04-24T02:30:46;7.53;;;2.53;;
22549;SDS011;11441;57.164;-2.120;2023-04-24T02:33:13;8.33;;;1.67;;
22549;SDS011;11441;57.164;-2.120;2023-04-24T02:35:40;13.90;;;2.93;;
22549;SDS011;11441;57.164;-2.120;2023-04-24T02:38:07;9.63;;;2.43;;
22549;SDS011;11441;57.164;-2.120;2023-04-24T02:40:35;7.30;;;1.93;;
22549;SDS011;11441;57.164;-2.120;2023-04-24T02:43:02;7.67;;;1.80;;
22549;SDS011;11441;57.164;-2.120;2023-04-24T02:45:29;6.17;;;2.00;;
22549;SDS011;11441;57.164;-2.120;2023-04-24T02:47:56;6.40;;;1.80;;
22549;SDS011;11441;57.164;-2.120;2023-04-24T02:50:23;9.50;;;2.30;;
22549;SDS011;11441;57.164;-2.120;2023-04-24T02:52:49;7.13;;;1.60;;
22549;SDS011;11441;57.164;-2.120;2023-04-24T02:55:16;10.67;;;2.30;;
22549;SDS011;11441;57.164;-2.120;2023-04-24T02:57:43;6.60;;;2.83;;
22549;SDS011;11441;57.164;-2.120;2023-04-24T03:00:10;8.03;;;2.40;;
22549;SDS011;11441;57.164;-2.120;2023-04-24T03:02:40;16.27;;;3.43;;
22549;SDS011;11441;57.164;-2.120;2023-04-24T03:05:08;13.13;;;2.77;;
22549;SDS011;11441;57.164;-2.120;2023-04-24T03:07:35;11.93;;;2.40;;
22549;SDS011;11441;57.164;-2.120;2023-04-24T03:10:04;7.37;;;2.00;;
22549;SDS011;11441;57.164;-2.120;2023-04-24T03:12:32;8.30;;;2.37;;
22549;SDS011;11441;57.164;-2.120;2023-04-24T03:14:59;18.87;;;2.53;;
22549;SDS011;11441;57.164;-2.120;2023-04-24T03:17:26;9.30;;;2.63;;
22549;SDS011;11441;57.164;-2.120;2023-04-24T03:19:53;17.10;;;2.40;;
22549;SDS011;11441;57.164;-2.120;2023-04-24T03:22:20;9.67;;;2.17;;
22549;SDS011;11441;57.164;-2.120;2023-04-24T03:24:47;7.57;;;1.93;;
22549;SDS011;11441;57.164;-2.120;2023-04-24T03:27:16;12.20;;;2.73;;
22549;SDS011;11441;57.164;-2.120;2023-04-24T03:29:54;12.00;;;2.53;;
22549;SDS011;11441;57.164;-2.120;2023-04-24T03:32:28;10.97;;;2.43;;
22549;SDS011;11441;57.164;-2.120;2023-04-24T03:34:55;12.17;;;2.67;;
22549;SDS011;11441;57.164;-2.120;2023-04-24T03:37:22;14.23;;;2.33;;
22549;SDS011;11441;57.164;-2.120;2023-04-24T03:40:00;13.03;;;2.73;;
22549;SDS011;11441;57.164;-2.120;2023-04-24T03:42:28;12.87;;;2.97;;
22549;SDS011;11441;57.164;-2.120;2023-04-24T03:44:55;15.10;;;2.70;;
22549;SDS011;11441;57.164;-2.120;2023-04-24T03:47:27;12.43;;;2.57;;
22549;SDS011;11441;57.164;-2.120;2023-04-24T03:49:58;8.67;;;2.50;;
22549;SDS011;11441;57.164;-2.120;2023-04-24T03:52:25;16.77;;;3.20;;
22549;SDS011;11441;57.164;-2.120;2023-04-24T03:54:52;8.80;;;2.37;;
22549;SDS011;11441;57.164;-2.120;2023-04-24T03:57:19;10.83;;;2.90;;
22549;SDS011;11441;57.164;-2.120;2023-04-24T03:59:59;14.33;;;2.90;;
22549;SDS011;11441;57.164;-2.120;2023-04-24T04:02:26;9.57;;;2.40;;
22549;SDS011;11441;57.164;-2.120;2023-04-24T04:05:12;7.97;;;2.27;;
22549;SDS011;11441;57.164;-2.120;2023-04-24T04:07:40;9.47;;;2.53;;
22549;SDS011;11441;57.164;-2.120;2023-04-24T04:10:07;10.13;;;2.37;;
22549;SDS011;11441;57.164;-2.120;2023-04-24T04:12:36;5.87;;;2.20;;
22549;SDS011;11441;57.164;-2.120;2023-04-24T04:15:03;11.53;;;3.03;;
22549;SDS011;11441;57.164;-2.120;2023-04-24T04:17:31;9.90;;;2.10;;
22549;SDS011;11441;57.164;-2.120;2023-04-24T04:20:00;7.83;;;2.20;;
22549;SDS011;11441;57.164;-2.120;2023-04-24T04:22:27;10.33;;;2.53;;
22549;SDS011;11441;57.164;-2.120;2023-04-24T04:25:17;9.17;;;2.00;;
22549;SDS011;11441;57.164;-2.120;2023-04-24T04:27:46;7.33;;;1.90;;
22549;SDS011;11441;57.164;-2.120;2023-04-24T04:30:15;7.27;;;2.30;;
22549;SDS011;11441;57.164;-2.120;2023-04-24T04:32:50;13.07;;;2.40;;
22549;SDS011;11441;57.164;-2.120;2023-04-24T04:35:17;5.20;;;2.27;;
22549;SDS011;11441;57.164;-2.120;2023-04-24T04:38:03;3.97;;;1.10;;
22549;SDS011;11441;57.164;-2.120;2023-04-24T04:41:00;3.47;;;1.30;;
22549;SDS011;11441;57.164;-2.120;2023-04-24T04:43:30;5.73;;;1.60;;
22549;SDS011;11441;57.164;-2.120;2023-04-24T04:45:57;2.27;;;1.23;;
22549;SDS011;11441;57.164;-2.120;2023-04-24T04:48:27;8.20;;;1.43;;
22549;SDS011;11441;57.164;-2.120;2023-04-24T04:50:57;10.00;;;1.50;;
22549;SDS011;11441;57.164;-2.120;2023-04-24T04:53:26;3.40;;;1.30;;
22549;SDS011;11441;57.164;-2.120;2023-04-24T04:55:53;9.00;;;2.00;;
22549;SDS011;11441;57.164;-2.120;2023-04-24T04:58:24;7.00;;;1.30;;
22549;SDS011;11441;57.164;-2.120;2023-04-24T05:00:55;6.43;;;1.60;;
22549;SDS011;11441;57.164;-2.120;2023-04-24T05:03:38;10.57;;;2.40;;
22549;SDS011;11441;57.164;-2.120;2023-04-24T05:06:08;5.67;;;1.63;;
22549;SDS011;11441;57.164;-2.120;2023-04-24T05:08:38;5.10;;;1.77;;
22549;SDS011;11441;57.164;-2.120;2023-04-24T05:11:08;5.20;;;1.60;;
22549;SDS011;11441;57.164;-2.120;2023-04-24T05:13:36;6.67;;;1.40;;
22549;SDS011;11441;57.164;-2.120;2023-04-24T05:16:26;5.47;;;1.93;;
22549;SDS011;11441;57.164;-2.120;2023-04-24T05:18:54;7.10;;;1.57;;
22549;SDS011;11441;57.164;-2.120;2023-04-24T05:21:27;4.07;;;1.80;;
22549;SDS011;11441;57.164;-2.120;2023-04-24T05:23:54;4.53;;;1.87;;
22549;SDS011;11441;57.164;-2.120;2023-04-24T05:26:42;7.67;;;1.90;;
22549;SDS011;11441;57.164;-2.120;2023-04-24T05:29:10;8.07;;;2.33;;
22549;SDS011;11441;57.164;-2.120;2023-04-24T05:31:38;8.40;;;1.90;;
22549;SDS011;11441;57.164;-2.120;2023-04-24T05:34:05;10.37;;;2.33;;
22549;SDS011;11441;57.164;-2.120;2023-04-24T05:36:32;6.57;;;2.07;;
22549;SDS011;11441;57.164;-2.120;2023-04-24T05:38:59;8.20;;;1.97;;
22549;SDS011;11441;57.164;-2.120;2023-04-24T05:41:26;9.83;;;2.10;;
22549;SDS011;11441;57.164;-2.120;2023-04-24T05:43:53;9.10;;;2.07;;
22549;SDS011;11441;57.164;-2.120;2023-04-24T05:46:20;9.07;;;1.97;;
22549;SDS011;11441;57.164;-2.120;2023-04-24T05:48:47;16.23;;;2.50;;
22549;SDS011;11441;57.164;-2.120;2023-04-24T05:51:14;10.50;;;3.13;;
22549;SDS011;11441;57.164;-2.120;2023-04-24T05:53:41;19.77;;;3.97;;
22549;SDS011;11441;57.164;-2.120;2023-04-24T05:56:08;14.13;;;2.73;;
22549;SDS011;11441;57.164;-2.120;2023-04-24T05:58:35;7.27;;;3.07;;
22549;SDS011;11441;57.164;-2.120;2023-04-24T06:01:04;14.07;;;3.07;;
22549;SDS011;11441;57.164;-2.120;2023-04-24T06:03:31;11.27;;;2.53;;
22549;SDS011;11441;57.164;-2.120;2023-04-24T06:06:02;8.37;;;2.47;;
22549;SDS011;11441;57.164;-2.120;2023-04-24T06:08:29;12.03;;;2.67;;
22549;SDS011;11441;57.164;-2.120;2023-04-24T06:10:56;12.40;;;3.50;;
22549;SDS011;11441;57.164;-2.120;2023-04-24T06:13:23;9.47;;;2.40;;
22549;SDS011;11441;57.164;-2.120;2023-04-24T06:16:08;9.43;;;3.00;;
22549;SDS011;11441;57.164;-2.120;2023-04-24T06:18:39;7.80;;;2.37;;
22549;SDS011;11441;57.164;-2.120;2023-04-24T06:21:06;13.20;;;2.60;;
22549;SDS011;11441;57.164;-2.120;2023-04-24T06:23:33;7.70;;;1.90;;
22549;SDS011;11441;57.164;-2.120;2023-04-24T06:26:00;8.30;;;2.37;;
22549;SDS011;11441;57.164;-2.120;2023-04-24T06:28:27;6.93;;;2.67;;
22549;SDS011;11441;57.164;-2.120;2023-04-24T06:30:53;10.90;;;3.10;;
22549;SDS011;11441;57.164;-2.120;2023-04-24T06:33:20;13.10;;;3.60;;
22549;SDS011;11441;57.164;-2.120;2023-04-24T06:35:49;6.87;;;2.40;;
22549;SDS011;11441;57.164;-2.120;2023-04-24T06:38:16;5.47;;;2.07;;
22549;SDS011;11441;57.164;-2.120;2023-04-24T06:40:43;10.77;;;2.20;;
22549;SDS011;11441;57.164;-2.120;2023-04-24T06:43:10;10.57;;;2.30;;
22549;SDS011;11441;57.164;-2.120;2023-04-24T06:45:37;9.53;;;2.33;;
22549;SDS011;11441;57.164;-2.120;2023-04-24T06:48:06;9.73;;;2.20;;
22549;SDS011;11441;57.164;-2.120;2023-04-24T06:50:33;9.20;;;2.03;;
22549;SDS011;11441;57.164;-2.120;2023-04-24T06:53:00;7.97;;;2.33;;
22549;SDS011;11441;57.164;-2.120;2023-04-24T06:55:27;4.47;;;1.37;;
22549;SDS011;11441;57.164;-2.120;2023-04-24T06:57:54;9.10;;;2.30;;
22549;SDS011;11441;57.164;-2.120;2023-04-24T07:00:21;5.90;;;1.70;;
22549;SDS011;11441;57.164;-2.120;2023-04-24T07:02:48;4.37;;;2.13;;
22549;SDS011;11441;57.164;-2.120;2023-04-24T07:05:15;6.63;;;2.03;;
22549;SDS011;11441;57.164;-2.120;2023-04-24T07:08:00;5.93;;;2.37;;
22549;SDS011;11441;57.164;-2.120;2023-04-24T07:10:28;11.77;;;2.63;;
22549;SDS011;11441;57.164;-2.120;2023-04-24T07:12:56;10.23;;;2.27;;
22549;SDS011;11441;57.164;-2.120;2023-04-24T07:15:23;6.07;;;1.70;;
22549;SDS011;11441;57.164;-2.120;2023-04-24T07:17:50;10.90;;;2.90;;
22549;SDS011;11441;57.164;-2.120;2023-04-24T07:20:17;6.67;;;2.13;;
22549;SDS011;11441;57.164;-2.120;2023-04-24T07:22:43;10.63;;;2.87;;
22549;SDS011;11441;57.164;-2.120;2023-04-24T07:25:10;7.93;;;2.40;;
22549;SDS011;11441;57.164;-2.120;2023-04-24T07:27:37;10.73;;;2.57;;
22549;SDS011;11441;57.164;-2.120;2023-04-24T07:30:04;11.20;;;3.53;;
22549;SDS011;11441;57.164;-2.120;2023-04-24T07:32:33;7.90;;;2.10;;
22549;SDS011;11441;57.164;-2.120;2023-04-24T07:35:00;15.43;;;2.63;;
22549;SDS011;11441;57.164;-2.120;2023-04-24T07:37:27;12.27;;;2.33;;
22549;SDS011;11441;57.164;-2.120;2023-04-24T07:39:54;17.43;;;2.53;;
22549;SDS011;11441;57.164;-2.120;2023-04-24T07:42:21;16.07;;;3.50;;
22549;SDS011;11441;57.164;-2.120;2023-04-24T07:44:48;9.20;;;2.93;;
22549;SDS011;11441;57.164;-2.120;2023-04-24T07:47:15;16.17;;;2.63;;
22549;SDS011;11441;57.164;-2.120;2023-04-24T07:49:42;17.43;;;3.50;;
22549;SDS011;11441;57.164;-2.120;2023-04-24T07:52:09;13.47;;;2.93;;
22549;SDS011;11441;57.164;-2.120;2023-04-24T07:54:36;6.73;;;1.90;;
22549;SDS011;11441;57.164;-2.120;2023-04-24T07:57:03;13.63;;;2.97;;
22549;SDS011;11441;57.164;-2.120;2023-04-24T07:59:32;10.53;;;3.30;;
22549;SDS011;11441;57.164;-2.120;2023-04-24T08:04:45;22.17;;;3.73;;
22549;SDS011;11441;57.164;-2.120;2023-04-24T08:07:12;12.47;;;2.70;;
22549;SDS011;11441;57.164;-2.120;2023-04-24T08:09:39;10.77;;;2.97;;
22549;SDS011;11441;57.164;-2.120;2023-04-24T08:12:06;9.57;;;2.50;;
22549;SDS011;11441;57.164;-2.120;2023-04-24T08:14:33;13.93;;;3.30;;
22549;SDS011;11441;57.164;-2.120;2023-04-24T08:16:59;16.53;;;3.23;;
22549;SDS011;11441;57.164;-2.120;2023-04-24T08:19:27;10.07;;;2.20;;
22549;SDS011;11441;57.164;-2.120;2023-04-24T08:21:54;13.90;;;1.97;;
22549;SDS011;11441;57.164;-2.120;2023-04-24T08:24:21;12.53;;;2.00;;
22549;SDS011;11441;57.164;-2.120;2023-04-24T08:26:48;7.27;;;2.23;;
22549;SDS011;11441;57.164;-2.120;2023-04-24T08:29:20;14.60;;;2.37;;
22549;SDS011;11441;57.164;-2.120;2023-04-24T08:31:47;9.63;;;1.90;;
22549;SDS011;11441;57.164;-2.120;2023-04-24T08:34:14;11.30;;;3.30;;
22549;SDS011;11441;57.164;-2.120;2023-04-24T08:36:41;10.73;;;2.23;;
22549;SDS011;11441;57.164;-2.120;2023-04-24T08:39:26;9.53;;;2.17;;
22549;SDS011;11441;57.164;-2.120;2023-04-24T08:44:39;5.50;;;1.90;;
22549;SDS011;11441;57.164;-2.120;2023-04-24T08:47:06;11.47;;;2.03;;
22549;SDS011;11441;57.164;-2.120;2023-04-24T08:49:35;10.67;;;1.87;;
22549;SDS011;11441;57.164;-2.120;2023-04-24T08:52:06;10.30;;;1.90;;
22549;SDS011;11441;57.164;-2.120;2023-04-24T08:54:34;11.00;;;1.97;;
22549;SDS011;11441;57.164;-2.120;2023-04-24T08:57:20;8.60;;;1.80;;
22549;SDS011;11441;57.164;-2.120;2023-04-24T08:59:48;11.83;;;3.10;;
22549;SDS011;11441;57.164;-2.120;2023-04-24T09:02:15;10.70;;;1.90;;
22549;SDS011;11441;57.164;-2.120;2023-04-24T09:04:43;7.10;;;1.73;;
22549;SDS011;11441;57.164;-2.120;2023-04-24T09:07:12;8.03;;;1.67;;
22549;SDS011;11441;57.164;-2.120;2023-04-24T09:09:43;13.43;;;2.27;;
22549;SDS011;11441;57.164;-2.120;2023-04-24T09:12:11;8.87;;;1.60;;
22549;SDS011;11441;57.164;-2.120;2023-04-24T09:14:38;10.07;;;1.67;;
22549;SDS011;11441;57.164;-2.120;2023-04-24T09:17:08;10.77;;;1.83;;
22549;SDS011;11441;57.164;-2.120;2023-04-24T09:19:35;8.90;;;2.23;;
22549;SDS011;11441;57.164;-2.120;2023-04-24T09:22:06;10.73;;;2.37;;
22549;SDS011;11441;57.164;-2.120;2023-04-24T09:24:33;7.70;;;2.00;;
22549;SDS011;11441;57.164;-2.120;2023-04-24T09:27:01;13.37;;;2.23;;
22549;SDS011;11441;57.164;-2.120;2023-04-24T09:29:28;12.90;;;2.50;;
22549;SDS011;11441;57.164;-2.120;2023-04-24T09:31:55;14.83;;;2.17;;
22549;SDS011;11441;57.164;-2.120;2023-04-24T09:37:10;16.20;;;2.50;;
22549;SDS011;11441;57.164;-2.120;2023-04-24T09:42:55;12.37;;;2.40;;
22549;SDS011;11441;57.164;-2.120;2023-04-24T09:45:46;10.43;;;2.90;;
22549;SDS011;11441;57.164;-2.120;2023-04-24T09:48:13;9.67;;;2.03;;
22549;SDS011;11441;57.164;-2.120;2023-04-24T09:50:40;12.60;;;2.43;;
22549;SDS011;11441;57.164;-2.120;2023-04-24T09:53:31;10.17;;;2.37;;
22549;SDS011;11441;57.164;-2.120;2023-04-24T09:56:08;11.73;;;2.20;;
22549;SDS011;11441;57.164;-2.120;2023-04-24T09:58:36;16.40;;;2.40;;
22549;SDS011;11441;57.164;-2.120;2023-04-24T10:01:03;8.97;;;1.67;;
22549;SDS011;11441;57.164;-2.120;2023-04-24T10:03:31;8.30;;;1.97;;
22549;SDS011;11441;57.164;-2.120;2023-04-24T10:06:00;8.27;;;1.73;;
22549;SDS011;11441;57.164;-2.120;2023-04-24T10:08:33;10.80;;;2.87;;
22549;SDS011;11441;57.164;-2.120;2023-04-24T10:11:01;9.97;;;3.03;;
22549;SDS011;11441;57.164;-2.120;2023-04-24T10:13:28;11.83;;;3.20;;
22549;SDS011;11441;57.164;-2.120;2023-04-24T10:15:56;12.20;;;2.80;;
22549;SDS011;11441;57.164;-2.120;2023-04-24T10:18:24;15.00;;;3.23;;
22549;SDS011;11441;57.164;-2.120;2023-04-24T10:20:52;16.30;;;3.70;;
22549;SDS011;11441;57.164;-2.120;2023-04-24T10:23:21;17.13;;;4.37;;
22549;SDS011;11441;57.164;-2.120;2023-04-24T10:25:49;12.50;;;4.23;;
22549;SDS011;11441;57.164;-2.120;2023-04-24T10:28:17;10.33;;;2.70;;
22549;SDS011;11441;57.164;-2.120;2023-04-24T10:30:45;11.83;;;3.03;;
22549;SDS011;11441;57.164;-2.120;2023-04-24T10:33:13;8.27;;;2.13;;
22549;SDS011;11441;57.164;-2.120;2023-04-24T10:35:43;6.07;;;1.73;;
22549;SDS011;11441;57.164;-2.120;2023-04-24T10:38:16;7.83;;;1.50;;
22549;SDS011;11441;57.164;-2.120;2023-04-24T10:40:51;5.60;;;1.43;;
22549;SDS011;11441;57.164;-2.120;2023-04-24T10:43:23;6.50;;;1.73;;
22549;SDS011;11441;57.164;-2.120;2023-04-24T10:46:00;4.33;;;2.00;;
22549;SDS011;11441;57.164;-2.120;2023-04-24T10:48:29;4.87;;;1.30;;
22549;SDS011;11441;57.164;-2.120;2023-04-24T10:50:56;4.10;;;1.40;;
22549;SDS011;11441;57.164;-2.120;2023-04-24T10:53:24;6.03;;;1.20;;
22549;SDS011;11441;57.164;-2.120;2023-04-24T10:56:04;3.67;;;1.83;;
22549;SDS011;11441;57.164;-2.120;2023-04-24T10:58:53;4.27;;;1.30;;
22549;SDS011;11441;57.164;-2.120;2023-04-24T11:01:37;3.67;;;1.30;;
22549;SDS011;11441;57.164;-2.120;2023-04-24T11:04:04;3.83;;;0.93;;
22549;SDS011;11441;57.164;-2.120;2023-04-24T11:06:32;2.43;;;1.00;;
22549;SDS011;11441;57.164;-2.120;2023-04-24T11:09:05;8.67;;;2.23;;
22549;SDS011;11441;57.164;-2.120;2023-04-24T11:11:34;4.53;;;1.53;;
22549;SDS011;11441;57.164;-2.120;2023-04-24T11:14:20;2.20;;;1.03;;
22549;SDS011;11441;57.164;-2.120;2023-04-24T11:16:51;3.67;;;1.60;;
22549;SDS011;11441;57.164;-2.120;2023-04-24T11:19:24;7.73;;;1.60;;
22549;SDS011;11441;57.164;-2.120;2023-04-24T11:22:02;4.80;;;1.50;;
22549;SDS011;11441;57.164;-2.120;2023-04-24T11:27:20;5.37;;;1.07;;
22549;SDS011;11441;57.164;-2.120;2023-04-24T11:32:28;7.87;;;1.37;;
22549;SDS011;11441;57.164;-2.120;2023-04-24T11:37:26;8.97;;;1.80;;
22549;SDS011;11441;57.164;-2.120;2023-04-24T11:40:03;4.90;;;1.10;;
22549;SDS011;11441;57.164;-2.120;2023-04-24T11:42:35;6.83;;;1.20;;
22549;SDS011;11441;57.164;-2.120;2023-04-24T11:45:13;4.00;;;1.13;;
22549;SDS011;11441;57.164;-2.120;2023-04-24T11:47:44;3.20;;;1.35;;
22549;SDS011;11441;57.164;-2.120;2023-04-24T11:50:13;5.80;;;1.13;;
22549;SDS011;11441;57.164;-2.120;2023-04-24T11:52:41;6.47;;;1.20;;
22549;SDS011;11441;57.164;-2.120;2023-04-24T11:57:44;5.27;;;1.00;;
22549;SDS011;11441;57.164;-2.120;2023-04-24T12:00:21;5.80;;;1.10;;
22549;SDS011;11441;57.164;-2.120;2023-04-24T12:02:50;5.28;;;0.98;;
22549;SDS011;11441;57.164;-2.120;2023-04-24T12:07:48;4.40;;;0.77;;
22549;SDS011;11441;57.164;-2.120;2023-04-24T12:10:25;4.67;;;1.17;;
22549;SDS011;11441;57.164;-2.120;2023-04-24T12:12:55;4.07;;;0.80;;
22549;SDS011;11441;57.164;-2.120;2023-04-24T12:15:23;4.57;;;1.00;;
22549;SDS011;11441;57.164;-2.120;2023-04-24T12:17:50;2.00;;;0.90;;
22549;SDS011;11441;57.164;-2.120;2023-04-24T12:20:23;5.67;;;1.77;;
22549;SDS011;11441;57.164;-2.120;2023-04-24T12:22:56;5.70;;;1.67;;
22549;SDS011;11441;57.164;-2.120;2023-04-24T12:25:24;4.87;;;1.13;;
22549;SDS011;11441;57.164;-2.120;2023-04-24T12:28:18;7.00;;;1.03;;
22549;SDS011;11441;57.164;-2.120;2023-04-24T12:30:47;7.73;;;1.27;;
22549;SDS011;11441;57.164;-2.120;2023-04-24T12:33:19;10.43;;;1.23;;
22549;SDS011;11441;57.164;-2.120;2023-04-24T12:35:47;3.77;;;1.27;;
22549;SDS011;11441;57.164;-2.120;2023-04-24T12:38:15;3.80;;;1.10;;
22549;SDS011;11441;57.164;-2.120;2023-04-24T12:40:43;6.50;;;1.63;;
22549;SDS011;11441;57.164;-2.120;2023-04-24T12:43:17;12.73;;;2.03;;
22549;SDS011;11441;57.164;-2.120;2023-04-24T12:45:45;5.80;;;2.17;;
22549;SDS011;11441;57.164;-2.120;2023-04-24T12:48:14;8.03;;;1.20;;
22549;SDS011;11441;57.164;-2.120;2023-04-24T12:50:42;7.57;;;1.20;;
22549;SDS011;11441;57.164;-2.120;2023-04-24T12:53:12;7.70;;;2.33;;
22549;SDS011;11441;57.164;-2.120;2023-04-24T12:55:38;7.00;;;1.23;;
22549;SDS011;11441;57.164;-2.120;2023-04-24T12:58:06;6.77;;;1.63;;
22549;SDS011;11441;57.164;-2.120;2023-04-24T13:00:33;4.50;;;1.13;;
22549;SDS011;11441;57.164;-2.120;2023-04-24T13:03:00;4.90;;;1.03;;
22549;SDS011;11441;57.164;-2.120;2023-04-24T13:05:28;5.77;;;1.20;;
22549;SDS011;11441;57.164;-2.120;2023-04-24T13:07:55;4.87;;;1.03;;
22549;SDS011;11441;57.164;-2.120;2023-04-24T13:10:21;3.93;;;0.90;;
22549;SDS011;11441;57.164;-2.120;2023-04-24T13:12:48;5.57;;;1.27;;
22549;SDS011;11441;57.164;-2.120;2023-04-24T13:15:15;4.03;;;1.37;;
22549;SDS011;11441;57.164;-2.120;2023-04-24T13:17:43;5.87;;;1.20;;
22549;SDS011;11441;57.164;-2.120;2023-04-24T13:20:09;5.37;;;1.10;;
22549;SDS011;11441;57.164;-2.120;2023-04-24T13:25:22;4.27;;;0.90;;
22549;SDS011;11441;57.164;-2.120;2023-04-24T13:27:50;2.43;;;0.83;;
22549;SDS011;11441;57.164;-2.120;2023-04-24T13:30:17;4.57;;;0.77;;
22549;SDS011;11441;57.164;-2.120;2023-04-24T13:32:44;2.17;;;1.20;;
22549;SDS011;11441;57.164;-2.120;2023-04-24T13:35:11;4.93;;;1.60;;
22549;SDS011;11441;57.164;-2.120;2023-04-24T13:37:38;2.77;;;0.60;;
22549;SDS011;11441;57.164;-2.120;2023-04-24T13:40:05;5.57;;;0.60;;
22549;SDS011;11441;57.164;-2.120;2023-04-24T13:42:33;2.47;;;0.70;;
22549;SDS011;11441;57.164;-2.120;2023-04-24T13:45:00;4.03;;;0.60;;
22549;SDS011;11441;57.164;-2.120;2023-04-24T13:47:39;3.73;;;0.87;;
22549;SDS011;11441;57.164;-2.120;2023-04-24T13:50:08;12.73;;;1.10;;
22549;SDS011;11441;57.164;-2.120;2023-04-24T13:52:35;5.47;;;0.80;;
22549;SDS011;11441;57.164;-2.120;2023-04-24T13:55:02;4.23;;;0.90;;
22549;SDS011;11441;57.164;-2.120;2023-04-24T13:57:29;5.50;;;1.00;;
22549;SDS011;11441;57.164;-2.120;2023-04-24T13:59:57;4.33;;;1.07;;
22549;SDS011;11441;57.164;-2.120;2023-04-24T14:02:32;5.17;;;1.27;;
22549;SDS011;11441;57.164;-2.120;2023-04-24T14:04:59;2.43;;;1.07;;
22549;SDS011;11441;57.164;-2.120;2023-04-24T14:07:27;6.07;;;1.10;;
22549;SDS011;11441;57.164;-2.120;2023-04-24T14:09:54;3.70;;;0.50;;
22549;SDS011;11441;57.164;-2.120;2023-04-24T14:12:58;4.50;;;0.93;;
22549;SDS011;11441;57.164;-2.120;2023-04-24T14:15:25;4.67;;;1.27;;
22549;SDS011;11441;57.164;-2.120;2023-04-24T14:17:52;3.47;;;1.47;;
22549;SDS011;11441;57.164;-2.120;2023-04-24T14:20:19;3.60;;;1.10;;
22549;SDS011;11441;57.164;-2.120;2023-04-24T14:22:46;7.83;;;1.83;;
22549;SDS011;11441;57.164;-2.120;2023-04-24T14:25:12;6.43;;;1.27;;
22549;SDS011;11441;57.164;-2.120;2023-04-24T14:27:39;2.87;;;0.90;;
22549;SDS011;11441;57.164;-2.120;2023-04-24T14:30:06;2.87;;;0.90;;
22549;SDS011;11441;57.164;-2.120;2023-04-24T14:32:34;2.97;;;1.17;;
22549;SDS011;11441;57.164;-2.120;2023-04-24T14:35:01;2.47;;;0.80;;
22549;SDS011;11441;57.164;-2.120;2023-04-24T14:37:28;2.83;;;1.10;;
22549;SDS011;11441;57.164;-2.120;2023-04-24T14:39:55;3.07;;;1.03;;
22549;SDS011;11441;57.164;-2.120;2023-04-24T14:42:42;2.80;;;1.07;;
22549;SDS011;11441;57.164;-2.120;2023-04-24T14:45:09;6.77;;;1.20;;
22549;SDS011;11441;57.164;-2.120;2023-04-24T14:47:36;4.87;;;1.30;;
22549;SDS011;11441;57.164;-2.120;2023-04-24T14:50:03;6.83;;;1.53;;
22549;SDS011;11441;57.164;-2.120;2023-04-24T14:52:31;10.83;;;1.43;;
22549;SDS011;11441;57.164;-2.120;2023-04-24T14:54:58;6.87;;;1.20;;
22549;SDS011;11441;57.164;-2.120;2023-04-24T14:57:25;3.90;;;0.97;;
22549;SDS011;11441;57.164;-2.120;2023-04-24T14:59:52;4.23;;;1.20;;
22549;SDS011;11441;57.164;-2.120;2023-04-24T15:02:21;4.40;;;0.97;;
22549;SDS011;11441;57.164;-2.120;2023-04-24T15:05:06;3.00;;;1.07;;
22549;SDS011;11441;57.164;-2.120;2023-04-24T15:07:35;3.57;;;1.50;;
22549;SDS011;11441;57.164;-2.120;2023-04-24T15:10:02;4.90;;;1.33;;
22549;SDS011;11441;57.164;-2.120;2023-04-24T15:12:29;6.33;;;2.23;;